sensor_id;sensor_type;location;lat;lon;timestamp;pressure;altitude;pressure_sealevel;temperature;humidity
60874;BME280;46715;40.642;-7.920;2023-01-15T00:05:13;96972.34;;;12.13;100.00
60874;BME280;46715;40.642;-7.920;2023-01-15T00:10:43;96953.00;;;12.08;100.00
60874;BME280;46715;40.642;-7.920;2023-01-15T00:16:17;96949.09;;;12.11;100.00
60874;BME280;46715;40.642;-7.920;2023-01-15T00:18:19;96952.75;;;12.15;100.00
60874;BME280;46715;40.642;-7.920;2023-01-15T00:20:22;96956.38;;;12.09;100.00
60874;BME280;46715;40.642;-7.920;2023-01-15T00:22:23;96944.91;;;12.10;100.00
60874;BME280;46715;40.642;-7.920;2023-01-15T00:24:24;96945.97;;;12.24;100.00
60874;BME280;46715;40.642;-7.920;2023-01-15T00:26:43;96949.88;;;12.17;100.00
60874;BME280;46715;40.642;-7.920;2023-01-15T00:29:10;96939.66;;;12.00;100.00
60874;BME280;46715;40.642;-7.920;2023-01-15T00:37:24;96950.63;;;11.97;100.00
60874;BME280;46715;40.642;-7.920;2023-01-15T00:39:25;96934.69;;;12.03;100.00
60874;BME280;46715;40.642;-7.920;2023-01-15T00:41:38;96937.31;;;12.03;100.00
60874;BME280;46715;40.642;-7.920;2023-01-15T00:50:39;96925.28;;;11.97;100.00
60874;BME280;46715;40.642;-7.920;2023-01-15T00:52:40;96909.81;;;11.90;100.00
60874;BME280;46715;40.642;-7.920;2023-01-15T00:54:41;96908.03;;;11.96;100.00
60874;BME280;46715;40.642;-7.920;2023-01-15T00:56:42;96909.59;;;11.97;100.00
60874;BME280;46715;40.642;-7.920;2023-01-15T00:59:20;96897.31;;;12.03;100.00
60874;BME280;46715;40.642;-7.920;2023-01-15T01:01:20;96893.13;;;12.07;100.00
60874;BME280;46715;40.642;-7.920;2023-01-15T01:03:22;96901.50;;;12.04;100.00
60874;BME280;46715;40.642;-7.920;2023-01-15T01:08:37;96892.09;;;12.08;100.00
60874;BME280;46715;40.642;-7.920;2023-01-15T01:10:38;96882.38;;;11.88;100.00
60874;BME280;46715;40.642;-7.920;2023-01-15T01:12:40;96879.78;;;11.93;100.00
60874;BME280;46715;40.642;-7.920;2023-01-15T01:14:40;96872.72;;;11.93;100.00
60874;BME280;46715;40.642;-7.920;2023-01-15T01:16:43;96875.84;;;11.90;100.00
60874;BME280;46715;40.642;-7.920;2023-01-15T01:18:46;96876.41;;;11.98;100.00
60874;BME280;46715;40.642;-7.920;2023-01-15T01:20:47;96870.91;;;11.94;100.00
60874;BME280;46715;40.642;-7.920;2023-01-15T01:25:27;96857.84;;;12.09;100.00
60874;BME280;46715;40.642;-7.920;2023-01-15T01:27:28;96861.78;;;11.97;100.00
60874;BME280;46715;40.642;-7.920;2023-01-15T01:29:29;96859.66;;;11.88;100.00
60874;BME280;46715;40.642;-7.920;2023-01-15T01:38:14;96852.88;;;11.98;100.00
60874;BME280;46715;40.642;-7.920;2023-01-15T01:40:16;96831.94;;;11.72;100.00
60874;BME280;46715;40.642;-7.920;2023-01-15T01:42:17;96837.94;;;11.88;100.00
60874;BME280;46715;40.642;-7.920;2023-01-15T01:47:28;96843.22;;;12.03;100.00
60874;BME280;46715;40.642;-7.920;2023-01-15T01:49:35;96853.41;;;12.10;100.00
60874;BME280;46715;40.642;-7.920;2023-01-15T01:54:39;96842.19;;;11.94;100.00
60874;BME280;46715;40.642;-7.920;2023-01-15T01:56:40;96828.25;;;11.63;100.00
60874;BME280;46715;40.642;-7.920;2023-01-15T01:58:46;96829.56;;;11.50;100.00
60874;BME280;46715;40.642;-7.920;2023-01-15T02:00:50;96832.97;;;11.81;100.00
60874;BME280;46715;40.642;-7.920;2023-01-15T02:02:54;96838.25;;;11.97;100.00
60874;BME280;46715;40.642;-7.920;2023-01-15T02:04:55;96831.72;;;11.94;100.00
60874;BME280;46715;40.642;-7.920;2023-01-15T02:06:59;96829.06;;;11.79;100.00
60874;BME280;46715;40.642;-7.920;2023-01-15T02:09:02;96822.28;;;11.83;100.00
60874;BME280;46715;40.642;-7.920;2023-01-15T02:11:28;96826.97;;;11.91;100.00
60874;BME280;46715;40.642;-7.920;2023-01-15T02:15:46;96839.78;;;11.82;100.00
60874;BME280;46715;40.642;-7.920;2023-01-15T02:17:57;96824.38;;;11.70;100.00
60874;BME280;46715;40.642;-7.920;2023-01-15T02:22:46;96832.72;;;11.93;100.00
60874;BME280;46715;40.642;-7.920;2023-01-15T02:28:09;96841.91;;;12.01;100.00
60874;BME280;46715;40.642;-7.920;2023-01-15T02:30:19;96847.13;;;12.06;100.00
60874;BME280;46715;40.642;-7.920;2023-01-15T02:32:43;96844.25;;;12.07;100.00
60874;BME280;46715;40.642;-7.920;2023-01-15T02:34:52;96836.41;;;12.07;100.00
60874;BME280;46715;40.642;-7.920;2023-01-15T02:37:09;96842.19;;;12.15;100.00
60874;BME280;46715;40.642;-7.920;2023-01-15T02:39:12;96845.84;;;11.98;100.00
60874;BME280;46715;40.642;-7.920;2023-01-15T02:41:19;96839.56;;;11.94;100.00
60874;BME280;46715;40.642;-7.920;2023-01-15T02:43:39;96843.22;;;11.98;100.00
60874;BME280;46715;40.642;-7.920;2023-01-15T02:45:57;96837.72;;;11.94;100.00
60874;BME280;46715;40.642;-7.920;2023-01-15T02:51:43;96814.19;;;11.84;100.00
60874;BME280;46715;40.642;-7.920;2023-01-15T02:53:48;96818.88;;;11.82;100.00
60874;BME280;46715;40.642;-7.920;2023-01-15T02:55:56;96816.03;;;11.94;100.00
60874;BME280;46715;40.642;-7.920;2023-01-15T02:58:07;96818.91;;;11.98;100.00
60874;BME280;46715;40.642;-7.920;2023-01-15T03:00:12;96820.47;;;11.88;100.00
60874;BME280;46715;40.642;-7.920;2023-01-15T03:02:22;96807.66;;;11.87;100.00
60874;BME280;46715;40.642;-7.920;2023-01-15T03:04:42;96800.84;;;11.81;100.00
60874;BME280;46715;40.642;-7.920;2023-01-15T03:07:04;96802.94;;;11.84;100.00
60874;BME280;46715;40.642;-7.920;2023-01-15T03:09:08;96804.78;;;11.88;100.00
60874;BME280;46715;40.642;-7.920;2023-01-15T03:11:14;96802.41;;;11.92;100.00
60874;BME280;46715;40.642;-7.920;2023-01-15T03:13:28;96806.84;;;11.86;100.00
60874;BME280;46715;40.642;-7.920;2023-01-15T03:15:40;96808.66;;;11.91;100.00
60874;BME280;46715;40.642;-7.920;2023-01-15T03:18:03;96801.09;;;11.89;100.00
60874;BME280;46715;40.642;-7.920;2023-01-15T03:20:19;96802.16;;;11.93;100.00
60874;BME280;46715;40.642;-7.920;2023-01-15T03:22:33;96801.09;;;11.89;100.00
60874;BME280;46715;40.642;-7.920;2023-01-15T03:26:51;96808.97;;;12.00;100.00
60874;BME280;46715;40.642;-7.920;2023-01-15T03:28:53;96810.53;;;12.16;100.00
60874;BME280;46715;40.642;-7.920;2023-01-15T03:30:55;96808.44;;;12.18;100.00
60874;BME280;46715;40.642;-7.920;2023-01-15T03:32:56;96802.97;;;12.15;100.00
60874;BME280;46715;40.642;-7.920;2023-01-15T03:34:58;96802.44;;;12.18;100.00
60874;BME280;46715;40.642;-7.920;2023-01-15T03:37:01;96800.09;;;12.16;100.00
60874;BME280;46715;40.642;-7.920;2023-01-15T03:39:04;96793.78;;;12.17;100.00
60874;BME280;46715;40.642;-7.920;2023-01-15T03:41:40;96803.47;;;12.17;100.00
60874;BME280;46715;40.642;-7.920;2023-01-15T03:48:50;96797.75;;;12.15;100.00
60874;BME280;46715;40.642;-7.920;2023-01-15T03:51:17;96787.78;;;12.17;100.00
60874;BME280;46715;40.642;-7.920;2023-01-15T03:53:22;96783.88;;;12.04;100.00
60874;BME280;46715;40.642;-7.920;2023-01-15T03:58:14;96788.06;;;12.15;100.00
60874;BME280;46715;40.642;-7.920;2023-01-15T04:00:39;96796.41;;;12.17;100.00
60874;BME280;46715;40.642;-7.920;2023-01-15T04:02:44;96787.00;;;12.21;100.00
60874;BME280;46715;40.642;-7.920;2023-01-15T04:04:49;96790.13;;;12.23;100.00
60874;BME280;46715;40.642;-7.920;2023-01-15T04:06:53;96794.06;;;12.26;100.00
60874;BME280;46715;40.642;-7.920;2023-01-15T04:08:56;96782.28;;;12.23;100.00
60874;BME280;46715;40.642;-7.920;2023-01-15T04:11:00;96787.78;;;12.22;100.00
60874;BME280;46715;40.642;-7.920;2023-01-15T04:13:05;96783.59;;;12.26;100.00
60874;BME280;46715;40.642;-7.920;2023-01-15T04:15:07;96780.44;;;12.29;100.00
60874;BME280;46715;40.642;-7.920;2023-01-15T04:17:08;96783.34;;;12.33;100.00
60874;BME280;46715;40.642;-7.920;2023-01-15T04:19:09;96780.97;;;12.31;100.00
60874;BME280;46715;40.642;-7.920;2023-01-15T04:21:13;96782.81;;;12.31;100.00
60874;BME280;46715;40.642;-7.920;2023-01-15T04:23:15;96785.91;;;12.38;100.00
60874;BME280;46715;40.642;-7.920;2023-01-15T04:25:16;96779.91;;;12.37;100.00
60874;BME280;46715;40.642;-7.920;2023-01-15T04:27:17;96783.56;;;12.41;100.00
60874;BME280;46715;40.642;-7.920;2023-01-15T04:29:17;96802.69;;;12.32;100.00
60874;BME280;46715;40.642;-7.920;2023-01-15T04:31:19;96794.31;;;12.24;100.00
60874;BME280;46715;40.642;-7.920;2023-01-15T04:33:20;96800.06;;;12.32;100.00
60874;BME280;46715;40.642;-7.920;2023-01-15T04:35:21;96799.28;;;12.16;100.00
60874;BME280;46715;40.642;-7.920;2023-01-15T04:37:21;96801.38;;;12.24;100.00
60874;BME280;46715;40.642;-7.920;2023-01-15T04:39:23;96790.38;;;12.32;100.00
60874;BME280;46715;40.642;-7.920;2023-01-15T04:41:23;96791.69;;;12.40;100.00
60874;BME280;46715;40.642;-7.920;2023-01-15T04:43:43;96788.03;;;12.36;100.00
60874;BME280;46715;40.642;-7.920;2023-01-15T04:46:02;96789.88;;;12.30;100.00
60874;BME280;46715;40.642;-7.920;2023-01-15T04:48:03;96785.19;;;12.22;100.00
60874;BME280;46715;40.642;-7.920;2023-01-15T04:50:04;96796.69;;;11.95;100.00
60874;BME280;46715;40.642;-7.920;2023-01-15T04:52:05;96799.56;;;12.04;100.00
60874;BME280;46715;40.642;-7.920;2023-01-15T04:54:07;96812.63;;;11.99;100.00
60874;BME280;46715;40.642;-7.920;2023-01-15T04:56:09;96812.91;;;11.97;100.00
60874;BME280;46715;40.642;-7.920;2023-01-15T04:58:09;96807.13;;;11.95;100.00
60874;BME280;46715;40.642;-7.920;2023-01-15T05:00:11;96814.16;;;11.89;100.00
60874;BME280;46715;40.642;-7.920;2023-01-15T05:02:12;96806.34;;;11.94;100.00
60874;BME280;46715;40.642;-7.920;2023-01-15T05:04:12;96804.25;;;11.86;100.00
60874;BME280;46715;40.642;-7.920;2023-01-15T05:06:13;96799.81;;;11.82;100.00
60874;BME280;46715;40.642;-7.920;2023-01-15T05:08:14;96807.88;;;11.70;100.00
60874;BME280;46715;40.642;-7.920;2023-01-15T05:10:15;96795.34;;;11.62;100.00
60874;BME280;46715;40.642;-7.920;2023-01-15T05:12:17;96792.97;;;11.55;100.00
60874;BME280;46715;40.642;-7.920;2023-01-15T05:14:18;96797.41;;;11.49;100.00
60874;BME280;46715;40.642;-7.920;2023-01-15T05:16:26;96799.53;;;11.52;100.00
60874;BME280;46715;40.642;-7.920;2023-01-15T05:18:28;96793.00;;;11.50;100.00
60874;BME280;46715;40.642;-7.920;2023-01-15T05:20:28;96798.19;;;11.39;100.00
60874;BME280;46715;40.642;-7.920;2023-01-15T05:22:29;96796.63;;;11.43;100.00
60874;BME280;46715;40.642;-7.920;2023-01-15T05:24:30;96796.88;;;11.37;100.00
60874;BME280;46715;40.642;-7.920;2023-01-15T05:26:31;96803.88;;;11.16;100.00
60874;BME280;46715;40.642;-7.920;2023-01-15T05:28:32;96819.28;;;11.12;100.00
60874;BME280;46715;40.642;-7.920;2023-01-15T05:30:34;96844.31;;;11.08;100.00
60874;BME280;46715;40.642;-7.920;2023-01-15T05:32:37;96838.53;;;11.01;100.00
60874;BME280;46715;40.642;-7.920;2023-01-15T05:34:37;96835.09;;;10.95;100.00
60874;BME280;46715;40.642;-7.920;2023-01-15T05:36:38;96842.19;;;11.05;100.00
60874;BME280;46715;40.642;-7.920;2023-01-15T05:38:40;96851.59;;;11.06;100.00
60874;BME280;46715;40.642;-7.920;2023-01-15T05:40:41;96853.19;;;11.12;100.00
60874;BME280;46715;40.642;-7.920;2023-01-15T05:42:42;96870.09;;;10.99;100.00
60874;BME280;46715;40.642;-7.920;2023-01-15T05:44:43;96877.72;;;11.11;100.00
60874;BME280;46715;40.642;-7.920;2023-01-15T05:46:44;96873.78;;;11.08;100.00
60874;BME280;46715;40.642;-7.920;2023-01-15T05:48:47;96881.00;;;10.91;100.00
60874;BME280;46715;40.642;-7.920;2023-01-15T05:50:48;96876.72;;;10.69;100.00
60874;BME280;46715;40.642;-7.920;2023-01-15T05:52:49;96880.28;;;10.53;100.00
60874;BME280;46715;40.642;-7.920;2023-01-15T05:54:49;96893.50;;;10.46;100.00
60874;BME280;46715;40.642;-7.920;2023-01-15T05:56:52;96897.66;;;10.42;100.00
60874;BME280;46715;40.642;-7.920;2023-01-15T05:58:53;96895.91;;;10.53;100.00
60874;BME280;46715;40.642;-7.920;2023-01-15T06:00:54;96905.59;;;10.25;99.26
60874;BME280;46715;40.642;-7.920;2023-01-15T06:02:55;96901.59;;;10.17;100.00
60874;BME280;46715;40.642;-7.920;2023-01-15T06:04:56;96894.28;;;10.42;99.22
60874;BME280;46715;40.642;-7.920;2023-01-15T06:06:57;96897.81;;;10.30;98.82
60874;BME280;46715;40.642;-7.920;2023-01-15T06:08:59;96899.63;;;10.30;99.11
60874;BME280;46715;40.642;-7.920;2023-01-15T06:10:59;96898.97;;;10.45;98.67
60874;BME280;46715;40.642;-7.920;2023-01-15T06:13:01;96890.44;;;10.54;98.10
60874;BME280;46715;40.642;-7.920;2023-01-15T06:15:01;96888.38;;;10.56;97.01
60874;BME280;46715;40.642;-7.920;2023-01-15T06:17:02;96895.13;;;10.52;98.32
60874;BME280;46715;40.642;-7.920;2023-01-15T06:19:05;96903.44;;;10.49;98.02
60874;BME280;46715;40.642;-7.920;2023-01-15T06:21:10;96908.19;;;10.52;97.61
60874;BME280;46715;40.642;-7.920;2023-01-15T06:23:11;96915.25;;;10.30;97.55
60874;BME280;46715;40.642;-7.920;2023-01-15T06:25:12;96919.03;;;10.39;97.95
60874;BME280;46715;40.642;-7.920;2023-01-15T06:27:13;96915.19;;;10.47;97.43
60874;BME280;46715;40.642;-7.920;2023-01-15T06:29:14;96923.00;;;10.47;97.35
60874;BME280;46715;40.642;-7.920;2023-01-15T06:31:20;96919.63;;;10.51;97.67
60874;BME280;46715;40.642;-7.920;2023-01-15T06:33:21;96914.16;;;10.53;97.37
60874;BME280;46715;40.642;-7.920;2023-01-15T06:35:22;96919.13;;;10.54;97.47
60874;BME280;46715;40.642;-7.920;2023-01-15T06:37:23;96925.31;;;10.43;97.25
60874;BME280;46715;40.642;-7.920;2023-01-15T06:39:24;96938.59;;;10.42;97.14
60874;BME280;46715;40.642;-7.920;2023-01-15T06:41:25;96939.41;;;10.47;96.83
60874;BME280;46715;40.642;-7.920;2023-01-15T06:43:45;96947.75;;;10.49;95.99
60874;BME280;46715;40.642;-7.920;2023-01-15T06:46:08;96947.00;;;10.49;95.10
60874;BME280;46715;40.642;-7.920;2023-01-15T06:48:27;96948.81;;;10.48;94.39
60874;BME280;46715;40.642;-7.920;2023-01-15T06:50:28;96945.00;;;10.34;95.00
60874;BME280;46715;40.642;-7.920;2023-01-15T06:52:28;96956.13;;;10.24;94.40
60874;BME280;46715;40.642;-7.920;2023-01-15T06:54:30;96965.16;;;10.11;93.96
60874;BME280;46715;40.642;-7.920;2023-01-15T06:56:31;96971.91;;;9.85;94.94
60874;BME280;46715;40.642;-7.920;2023-01-15T06:58:40;96980.19;;;10.04;95.31
60874;BME280;46715;40.642;-7.920;2023-01-15T07:00:41;96979.28;;;9.93;93.94
60874;BME280;46715;40.642;-7.920;2023-01-15T07:02:43;96990.06;;;9.80;93.37
60874;BME280;46715;40.642;-7.920;2023-01-15T07:04:45;96990.50;;;9.94;92.93
60874;BME280;46715;40.642;-7.920;2023-01-15T07:06:46;96996.19;;;9.90;92.86
60874;BME280;46715;40.642;-7.920;2023-01-15T07:08:47;96978.97;;;9.89;91.44
60874;BME280;46715;40.642;-7.920;2023-01-15T07:10:48;96980.66;;;9.73;89.14
60874;BME280;46715;40.642;-7.920;2023-01-15T07:12:49;96992.25;;;9.88;89.68
60874;BME280;46715;40.642;-7.920;2023-01-15T07:14:50;96992.56;;;9.69;88.43
60874;BME280;46715;40.642;-7.920;2023-01-15T07:16:51;96986.09;;;9.72;87.15
60874;BME280;46715;40.642;-7.920;2023-01-15T07:18:55;96993.72;;;9.79;86.87
60874;BME280;46715;40.642;-7.920;2023-01-15T07:20:56;96999.28;;;9.87;85.39
60874;BME280;46715;40.642;-7.920;2023-01-15T07:22:58;96988.63;;;9.89;85.41
60874;BME280;46715;40.642;-7.920;2023-01-15T07:24:58;96997.03;;;9.96;85.68
60874;BME280;46715;40.642;-7.920;2023-01-15T07:27:00;96992.41;;;10.03;85.67
60874;BME280;46715;40.642;-7.920;2023-01-15T07:29:01;97008.44;;;10.17;85.51
60874;BME280;46715;40.642;-7.920;2023-01-15T07:31:02;97004.56;;;10.20;85.95
60874;BME280;46715;40.642;-7.920;2023-01-15T07:33:03;97002.03;;;10.25;85.32
60874;BME280;46715;40.642;-7.920;2023-01-15T07:35:04;97009.78;;;10.20;85.78
60874;BME280;46715;40.642;-7.920;2023-01-15T07:37:05;97005.06;;;10.17;85.77
60874;BME280;46715;40.642;-7.920;2023-01-15T07:39:08;96999.31;;;10.15;86.36
60874;BME280;46715;40.642;-7.920;2023-01-15T07:41:09;97008.69;;;10.16;86.03
60874;BME280;46715;40.642;-7.920;2023-01-15T07:43:28;97005.00;;;10.12;85.68
60874;BME280;46715;40.642;-7.920;2023-01-15T07:45:48;96994.00;;;10.04;84.90
60874;BME280;46715;40.642;-7.920;2023-01-15T07:48:09;97008.84;;;10.04;85.08
60874;BME280;46715;40.642;-7.920;2023-01-15T07:50:28;97016.69;;;10.09;85.11
60874;BME280;46715;40.642;-7.920;2023-01-15T07:52:29;97026.47;;;10.19;85.48
60874;BME280;46715;40.642;-7.920;2023-01-15T07:54:31;97032.72;;;10.18;86.73
60874;BME280;46715;40.642;-7.920;2023-01-15T07:56:32;97044.84;;;10.07;85.12
60874;BME280;46715;40.642;-7.920;2023-01-15T07:58:33;97042.72;;;10.04;85.64
60874;BME280;46715;40.642;-7.920;2023-01-15T08:00:35;97046.00;;;9.94;85.73
60874;BME280;46715;40.642;-7.920;2023-01-15T08:02:35;97057.13;;;9.89;86.61
60874;BME280;46715;40.642;-7.920;2023-01-15T08:04:36;97053.94;;;10.04;86.44
60874;BME280;46715;40.642;-7.920;2023-01-15T08:06:37;97061.44;;;9.79;86.85
60874;BME280;46715;40.642;-7.920;2023-01-15T08:08:38;97060.88;;;9.77;87.15
60874;BME280;46715;40.642;-7.920;2023-01-15T08:10:39;97067.19;;;9.81;87.17
60874;BME280;46715;40.642;-7.920;2023-01-15T08:13:00;97071.78;;;9.73;87.58
60874;BME280;46715;40.642;-7.920;2023-01-15T08:15:19;97076.72;;;9.53;87.18
60874;BME280;46715;40.642;-7.920;2023-01-15T08:17:19;97070.97;;;9.51;87.86
60874;BME280;46715;40.642;-7.920;2023-01-15T08:19:20;97080.50;;;9.45;87.48
60874;BME280;46715;40.642;-7.920;2023-01-15T08:21:22;97076.91;;;9.29;86.59
60874;BME280;46715;40.642;-7.920;2023-01-15T08:23:23;97080.41;;;9.18;89.22
60874;BME280;46715;40.642;-7.920;2023-01-15T08:25:24;97076.28;;;9.22;86.85
60874;BME280;46715;40.642;-7.920;2023-01-15T08:27:25;97075.19;;;9.18;86.86
60874;BME280;46715;40.642;-7.920;2023-01-15T08:29:26;97080.53;;;9.28;88.01
60874;BME280;46715;40.642;-7.920;2023-01-15T08:31:27;97082.84;;;9.25;87.88
60874;BME280;46715;40.642;-7.920;2023-01-15T08:33:29;97082.75;;;9.19;88.42
60874;BME280;46715;40.642;-7.920;2023-01-15T08:35:30;97094.19;;;9.18;88.84
60874;BME280;46715;40.642;-7.920;2023-01-15T08:37:31;97093.16;;;9.19;87.85
60874;BME280;46715;40.642;-7.920;2023-01-15T08:39:32;97088.34;;;9.28;88.17
60874;BME280;46715;40.642;-7.920;2023-01-15T08:41:33;97084.78;;;9.17;87.86
60874;BME280;46715;40.642;-7.920;2023-01-15T08:43:34;97091.28;;;9.15;88.58
60874;BME280;46715;40.642;-7.920;2023-01-15T08:45:35;97084.88;;;9.23;88.06
60874;BME280;46715;40.642;-7.920;2023-01-15T08:47:36;97090.16;;;9.45;87.29
60874;BME280;46715;40.642;-7.920;2023-01-15T08:49:37;97087.88;;;9.48;86.12
60874;BME280;46715;40.642;-7.920;2023-01-15T08:51:38;97089.25;;;9.56;86.39
60874;BME280;46715;40.642;-7.920;2023-01-15T08:53:39;97086.41;;;9.75;85.35
60874;BME280;46715;40.642;-7.920;2023-01-15T08:55:39;97089.44;;;9.88;84.60
60874;BME280;46715;40.642;-7.920;2023-01-15T08:57:40;97088.34;;;10.06;84.42
60874;BME280;46715;40.642;-7.920;2023-01-15T08:59:41;97100.25;;;10.42;83.38
60874;BME280;46715;40.642;-7.920;2023-01-15T09:01:45;97103.28;;;10.88;81.64
60874;BME280;46715;40.642;-7.920;2023-01-15T09:03:46;97112.75;;;11.69;79.04
60874;BME280;46715;40.642;-7.920;2023-01-15T09:05:46;97111.91;;;13.21;75.55
60874;BME280;46715;40.642;-7.920;2023-01-15T09:07:47;97109.84;;;14.30;68.59
60874;BME280;46715;40.642;-7.920;2023-01-15T09:09:48;97108.47;;;14.43;67.80
60874;BME280;46715;40.642;-7.920;2023-01-15T09:11:49;97114.56;;;14.23;65.01
60874;BME280;46715;40.642;-7.920;2023-01-15T09:13:50;97119.72;;;14.48;65.38
60874;BME280;46715;40.642;-7.920;2023-01-15T09:15:51;97121.38;;;14.34;64.56
60874;BME280;46715;40.642;-7.920;2023-01-15T09:17:52;97128.41;;;13.53;64.95
60874;BME280;46715;40.642;-7.920;2023-01-15T09:19:53;97128.13;;;13.18;66.81
60874;BME280;46715;40.642;-7.920;2023-01-15T09:21:53;97135.59;;;12.48;70.22
60874;BME280;46715;40.642;-7.920;2023-01-15T09:23:54;97141.28;;;11.76;72.60
60874;BME280;46715;40.642;-7.920;2023-01-15T09:26:04;97153.66;;;11.48;73.57
60874;BME280;46715;40.642;-7.920;2023-01-15T09:28:05;97153.53;;;11.33;75.04
60874;BME280;46715;40.642;-7.920;2023-01-15T09:30:08;97159.41;;;10.90;76.88
60874;BME280;46715;40.642;-7.920;2023-01-15T09:32:10;97162.19;;;10.79;77.20
60874;BME280;46715;40.642;-7.920;2023-01-15T09:34:10;97171.38;;;10.37;78.38
60874;BME280;46715;40.642;-7.920;2023-01-15T09:36:23;97169.84;;;10.24;79.72
60874;BME280;46715;40.642;-7.920;2023-01-15T09:38:25;97176.09;;;10.23;80.71
60874;BME280;46715;40.642;-7.920;2023-01-15T09:42:46;97194.19;;;9.90;81.79
60874;BME280;46715;40.642;-7.920;2023-01-15T09:45:16;97203.81;;;9.90;nan
60874;BME280;46715;40.642;-7.920;2023-01-15T09:47:25;97206.00;;;9.81;81.95
60874;BME280;46715;40.642;-7.920;2023-01-15T09:52:16;97211.94;;;9.77;82.36
60874;BME280;46715;40.642;-7.920;2023-01-15T09:56:47;97212.34;;;10.02;79.70
60874;BME280;46715;40.642;-7.920;2023-01-15T09:58:55;97210.63;;;10.13;78.59
60874;BME280;46715;40.642;-7.920;2023-01-15T10:00:57;97201.59;;;9.99;78.48
60874;BME280;46715;40.642;-7.920;2023-01-15T10:03:06;97221.22;;;10.23;80.05
60874;BME280;46715;40.642;-7.920;2023-01-15T10:05:27;97211.44;;;10.14;77.86
60874;BME280;46715;40.642;-7.920;2023-01-15T10:10:08;97222.88;;;10.13;77.27
60874;BME280;46715;40.642;-7.920;2023-01-15T10:12:17;97231.31;;;10.20;76.54
60874;BME280;46715;40.642;-7.920;2023-01-15T10:14:51;97230.38;;;10.26;76.61
60874;BME280;46715;40.642;-7.920;2023-01-15T10:16:54;97236.38;;;10.27;77.30
60874;BME280;46715;40.642;-7.920;2023-01-15T10:18:56;97237.47;;;10.31;77.01
60874;BME280;46715;40.642;-7.920;2023-01-15T10:21:05;97237.88;;;10.62;76.19
60874;BME280;46715;40.642;-7.920;2023-01-15T10:23:32;97235.94;;;10.74;74.62
60874;BME280;46715;40.642;-7.920;2023-01-15T10:25:49;97230.78;;;10.79;73.91
60874;BME280;46715;40.642;-7.920;2023-01-15T10:27:50;97239.38;;;10.80;74.26
60874;BME280;46715;40.642;-7.920;2023-01-15T10:29:57;97250.91;;;10.62;75.08
60874;BME280;46715;40.642;-7.920;2023-01-15T10:36:57;97254.66;;;10.49;72.25
60874;BME280;46715;40.642;-7.920;2023-01-15T10:41:18;97269.53;;;10.31;73.10
60874;BME280;46715;40.642;-7.920;2023-01-15T10:46:02;97272.94;;;10.49;69.90
60874;BME280;46715;40.642;-7.920;2023-01-15T10:48:11;97279.00;;;10.54;70.51
60874;BME280;46715;40.642;-7.920;2023-01-15T10:50:24;97277.38;;;10.48;68.89
60874;BME280;46715;40.642;-7.920;2023-01-15T10:52:36;97268.38;;;10.39;67.57
60874;BME280;46715;40.642;-7.920;2023-01-15T10:54:45;97276.19;;;10.22;69.87
60874;BME280;46715;40.642;-7.920;2023-01-15T10:57:07;97280.66;;;10.44;69.45
60874;BME280;46715;40.642;-7.920;2023-01-15T10:59:36;97275.59;;;10.54;68.26
60874;BME280;46715;40.642;-7.920;2023-01-15T11:01:39;97290.22;;;10.77;69.07
60874;BME280;46715;40.642;-7.920;2023-01-15T11:03:55;97283.63;;;10.69;65.99
60874;BME280;46715;40.642;-7.920;2023-01-15T11:05:56;97293.22;;;10.30;63.05
60874;BME280;46715;40.642;-7.920;2023-01-15T11:07:58;97284.94;;;10.16;63.46
60874;BME280;46715;40.642;-7.920;2023-01-15T11:12:38;97286.75;;;10.49;62.19
60874;BME280;46715;40.642;-7.920;2023-01-15T11:15:21;97282.91;;;10.35;62.84
60874;BME280;46715;40.642;-7.920;2023-01-15T11:35:20;97249.13;;;10.84;58.03
60874;BME280;46715;40.642;-7.920;2023-01-15T11:41:05;97248.31;;;10.84;58.43
60874;BME280;46715;40.642;-7.920;2023-01-15T11:57:33;97233.44;;;10.40;54.09
60874;BME280;46715;40.642;-7.920;2023-01-15T12:45:36;97220.56;;;11.27;49.75
60874;BME280;46715;40.642;-7.920;2023-01-15T12:50:41;97186.78;;;10.88;49.04
60874;BME280;46715;40.642;-7.920;2023-01-15T12:52:27;97196.53;;;10.70;49.46
60874;BME280;46715;40.642;-7.920;2023-01-15T12:54:38;97197.91;;;10.56;49.57
60874;BME280;46715;40.642;-7.920;2023-01-15T12:56:59;97202.75;;;10.91;49.50
60874;BME280;46715;40.642;-7.920;2023-01-15T13:09:36;97169.53;;;10.60;47.88
60874;BME280;46715;40.642;-7.920;2023-01-15T13:11:38;97174.63;;;10.49;48.02
60874;BME280;46715;40.642;-7.920;2023-01-15T13:13:47;97167.78;;;10.43;49.71
60874;BME280;46715;40.642;-7.920;2023-01-15T13:16:17;97165.25;;;10.31;49.29
60874;BME280;46715;40.642;-7.920;2023-01-15T13:20:36;97143.81;;;10.46;50.81
60874;BME280;46715;40.642;-7.920;2023-01-15T13:23:10;97142.03;;;10.30;51.94
60874;BME280;46715;40.642;-7.920;2023-01-15T13:32:32;97115.81;;;10.36;50.63
60874;BME280;46715;40.642;-7.920;2023-01-15T13:34:59;97142.72;;;10.64;51.86
60874;BME280;46715;40.642;-7.920;2023-01-15T13:37:51;97144.13;;;10.50;51.21
60874;BME280;46715;40.642;-7.920;2023-01-15T13:39:59;97141.50;;;10.72;52.08
60874;BME280;46715;40.642;-7.920;2023-01-15T13:42:03;97147.50;;;10.72;52.83
60874;BME280;46715;40.642;-7.920;2023-01-15T13:44:29;97150.44;;;10.81;53.04
60874;BME280;46715;40.642;-7.920;2023-01-15T13:46:31;97154.34;;;10.79;53.07
60874;BME280;46715;40.642;-7.920;2023-01-15T13:48:50;97155.56;;;10.71;52.03
60874;BME280;46715;40.642;-7.920;2023-01-15T13:51:03;97155.84;;;10.97;53.97
60874;BME280;46715;40.642;-7.920;2023-01-15T13:55:22;97160.97;;;10.64;54.05
60874;BME280;46715;40.642;-7.920;2023-01-15T13:57:35;97153.44;;;10.68;53.80
60874;BME280;46715;40.642;-7.920;2023-01-15T13:59:43;97159.47;;;10.96;53.00
60874;BME280;46715;40.642;-7.920;2023-01-15T14:01:44;97146.16;;;10.97;52.72
60874;BME280;46715;40.642;-7.920;2023-01-15T14:04:31;97143.41;;;10.82;52.14
60874;BME280;46715;40.642;-7.920;2023-01-15T14:08:47;97151.03;;;11.48;52.39
60874;BME280;46715;40.642;-7.920;2023-01-15T14:10:51;97145.09;;;11.25;51.38
60874;BME280;46715;40.642;-7.920;2023-01-15T14:33:43;97154.75;;;11.25;51.30